sensor_id;sensor_type;location;lat;lon;timestamp;P1;durP1;ratioP1;P2;durP2;ratioP2
78406;SDS011;67692;51.074;-1.790;2023-09-12T00:00:40;6.72;;;2.92;;
78406;SDS011;67692;51.074;-1.790;2023-09-12T00:03:07;6.50;;;2.88;;
78406;SDS011;67692;51.074;-1.790;2023-09-12T00:05:33;11.65;;;2.80;;
78406;SDS011;67692;51.074;-1.790;2023-09-12T00:08:00;5.30;;;2.30;;
78406;SDS011;67692;51.074;-1.790;2023-09-12T00:10:27;6.43;;;2.70;;
78406;SDS011;67692;51.074;-1.790;2023-09-12T00:12:53;5.82;;;2.47;;
78406;SDS011;67692;51.074;-1.790;2023-09-12T00:15:20;5.97;;;2.40;;
78406;SDS011;67692;51.074;-1.790;2023-09-12T00:17:48;7.05;;;2.70;;
78406;SDS011;67692;51.074;-1.790;2023-09-12T00:20:14;7.22;;;2.67;;
78406;SDS011;67692;51.074;-1.790;2023-09-12T00:22:41;6.00;;;2.63;;
78406;SDS011;67692;51.074;-1.790;2023-09-12T00:25:08;7.55;;;2.80;;
78406;SDS011;67692;51.074;-1.790;2023-09-12T00:27:34;8.65;;;2.53;;
78406;SDS011;67692;51.074;-1.790;2023-09-12T00:30:01;7.40;;;2.25;;
78406;SDS011;67692;51.074;-1.790;2023-09-12T00:32:27;7.20;;;3.17;;
78406;SDS011;67692;51.074;-1.790;2023-09-12T00:34:55;9.10;;;2.85;;
78406;SDS011;67692;51.074;-1.790;2023-09-12T00:37:22;7.65;;;2.63;;
78406;SDS011;67692;51.074;-1.790;2023-09-12T00:39:48;8.65;;;2.50;;
78406;SDS011;67692;51.074;-1.790;2023-09-12T00:42:15;6.13;;;2.45;;
78406;SDS011;67692;51.074;-1.790;2023-09-12T00:44:42;5.78;;;2.25;;
78406;SDS011;67692;51.074;-1.790;2023-09-12T00:47:08;3.92;;;1.90;;
78406;SDS011;67692;51.074;-1.790;2023-09-12T00:49:37;7.32;;;2.00;;
78406;SDS011;67692;51.074;-1.790;2023-09-12T00:52:06;6.47;;;2.20;;
78406;SDS011;67692;51.074;-1.790;2023-09-12T00:54:34;4.72;;;1.73;;
78406;SDS011;67692;51.074;-1.790;2023-09-12T00:57:00;5.85;;;2.22;;
78406;SDS011;67692;51.074;-1.790;2023-09-12T00:59:27;6.10;;;2.08;;
78406;SDS011;67692;51.074;-1.790;2023-09-12T01:01:54;7.57;;;2.40;;
78406;SDS011;67692;51.074;-1.790;2023-09-12T01:04:21;4.00;;;2.03;;
78406;SDS011;67692;51.074;-1.790;2023-09-12T01:06:48;7.40;;;1.80;;
78406;SDS011;67692;51.074;-1.790;2023-09-12T01:09:16;4.47;;;2.00;;
78406;SDS011;67692;51.074;-1.790;2023-09-12T01:11:43;4.93;;;1.70;;
78406;SDS011;67692;51.074;-1.790;2023-09-12T01:14:10;5.20;;;2.17;;
78406;SDS011;67692;51.074;-1.790;2023-09-12T01:16:37;4.95;;;1.90;;
78406;SDS011;67692;51.074;-1.790;2023-09-12T01:19:03;4.40;;;1.58;;
78406;SDS011;67692;51.074;-1.790;2023-09-12T01:21:38;5.20;;;2.70;;
78406;SDS011;67692;51.074;-1.790;2023-09-12T01:24:23;5.30;;;1.73;;
78406;SDS011;67692;51.074;-1.790;2023-09-12T01:27:17;5.30;;;1.70;;
78406;SDS011;67692;51.074;-1.790;2023-09-12T01:29:48;4.13;;;1.70;;
78406;SDS011;67692;51.074;-1.790;2023-09-12T01:32:17;4.05;;;1.67;;
78406;SDS011;67692;51.074;-1.790;2023-09-12T01:34:45;4.00;;;1.60;;
78406;SDS011;67692;51.074;-1.790;2023-09-12T01:37:12;5.55;;;1.67;;
78406;SDS011;67692;51.074;-1.790;2023-09-12T01:39:39;3.97;;;1.45;;
78406;SDS011;67692;51.074;-1.790;2023-09-12T01:42:06;5.57;;;1.58;;
78406;SDS011;67692;51.074;-1.790;2023-09-12T01:44:39;4.05;;;1.40;;
78406;SDS011;67692;51.074;-1.790;2023-09-12T01:47:07;3.88;;;1.42;;
78406;SDS011;67692;51.074;-1.790;2023-09-12T01:49:34;3.63;;;1.73;;
78406;SDS011;67692;51.074;-1.790;2023-09-12T01:52:02;7.57;;;1.45;;
78406;SDS011;67692;51.074;-1.790;2023-09-12T01:54:29;5.32;;;1.65;;
78406;SDS011;67692;51.074;-1.790;2023-09-12T01:56:56;3.60;;;1.52;;
78406;SDS011;67692;51.074;-1.790;2023-09-12T01:59:24;5.45;;;1.92;;
78406;SDS011;67692;51.074;-1.790;2023-09-12T02:01:52;3.58;;;1.45;;
78406;SDS011;67692;51.074;-1.790;2023-09-12T02:04:18;2.97;;;1.42;;
78406;SDS011;67692;51.074;-1.790;2023-09-12T02:06:45;4.65;;;1.85;;
78406;SDS011;67692;51.074;-1.790;2023-09-12T02:09:11;5.90;;;1.73;;
78406;SDS011;67692;51.074;-1.790;2023-09-12T02:11:38;5.03;;;1.65;;
78406;SDS011;67692;51.074;-1.790;2023-09-12T02:14:05;7.13;;;1.80;;
78406;SDS011;67692;51.074;-1.790;2023-09-12T02:16:31;3.22;;;1.38;;
78406;SDS011;67692;51.074;-1.790;2023-09-12T02:18:59;4.68;;;1.73;;
78406;SDS011;67692;51.074;-1.790;2023-09-12T02:21:26;4.28;;;1.75;;
78406;SDS011;67692;51.074;-1.790;2023-09-12T02:23:52;4.30;;;1.60;;
78406;SDS011;67692;51.074;-1.790;2023-09-12T02:26:19;4.43;;;1.60;;
78406;SDS011;67692;51.074;-1.790;2023-09-12T02:28:45;3.03;;;1.45;;
78406;SDS011;67692;51.074;-1.790;2023-09-12T02:31:12;3.13;;;1.40;;
78406;SDS011;67692;51.074;-1.790;2023-09-12T02:33:39;5.00;;;1.30;;
78406;SDS011;67692;51.074;-1.790;2023-09-12T02:36:07;5.43;;;1.77;;
78406;SDS011;67692;51.074;-1.790;2023-09-12T02:38:33;5.03;;;1.73;;
78406;SDS011;67692;51.074;-1.790;2023-09-12T02:41:00;5.90;;;1.60;;
78406;SDS011;67692;51.074;-1.790;2023-09-12T02:43:27;3.75;;;1.35;;
78406;SDS011;67692;51.074;-1.790;2023-09-12T02:45:54;6.68;;;1.35;;
78406;SDS011;67692;51.074;-1.790;2023-09-12T02:48:20;3.80;;;1.45;;
78406;SDS011;67692;51.074;-1.790;2023-09-12T02:50:47;4.88;;;1.23;;
78406;SDS011;67692;51.074;-1.790;2023-09-12T02:53:15;3.40;;;1.20;;
78406;SDS011;67692;51.074;-1.790;2023-09-12T02:55:41;5.03;;;1.20;;
78406;SDS011;67692;51.074;-1.790;2023-09-12T02:58:08;2.60;;;1.13;;
78406;SDS011;67692;51.074;-1.790;2023-09-12T03:00:37;2.28;;;1.00;;
78406;SDS011;67692;51.074;-1.790;2023-09-12T03:03:04;3.10;;;1.30;;
78406;SDS011;67692;51.074;-1.790;2023-09-12T03:05:31;3.85;;;1.25;;
78406;SDS011;67692;51.074;-1.790;2023-09-12T03:07:58;2.78;;;1.08;;
78406;SDS011;67692;51.074;-1.790;2023-09-12T03:10:26;3.53;;;1.30;;
78406;SDS011;67692;51.074;-1.790;2023-09-12T03:12:53;3.47;;;1.30;;
78406;SDS011;67692;51.074;-1.790;2023-09-12T03:15:19;4.97;;;1.10;;
78406;SDS011;67692;51.074;-1.790;2023-09-12T03:17:46;6.05;;;1.70;;
78406;SDS011;67692;51.074;-1.790;2023-09-12T03:20:13;3.10;;;1.15;;
78406;SDS011;67692;51.074;-1.790;2023-09-12T03:22:40;4.80;;;1.30;;
78406;SDS011;67692;51.074;-1.790;2023-09-12T03:25:07;3.85;;;1.10;;
78406;SDS011;67692;51.074;-1.790;2023-09-12T03:27:35;4.55;;;1.20;;
78406;SDS011;67692;51.074;-1.790;2023-09-12T03:30:01;4.53;;;1.35;;
78406;SDS011;67692;51.074;-1.790;2023-09-12T03:32:29;5.18;;;1.40;;
78406;SDS011;67692;51.074;-1.790;2023-09-12T03:34:55;4.45;;;1.20;;
78406;SDS011;67692;51.074;-1.790;2023-09-12T03:37:22;2.42;;;1.13;;
78406;SDS011;67692;51.074;-1.790;2023-09-12T03:39:52;4.03;;;1.30;;
78406;SDS011;67692;51.074;-1.790;2023-09-12T03:42:18;5.80;;;1.45;;
78406;SDS011;67692;51.074;-1.790;2023-09-12T03:44:46;8.02;;;1.13;;
78406;SDS011;67692;51.074;-1.790;2023-09-12T03:47:13;2.97;;;1.10;;
78406;SDS011;67692;51.074;-1.790;2023-09-12T03:49:39;4.03;;;1.30;;
78406;SDS011;67692;51.074;-1.790;2023-09-12T03:52:06;4.50;;;1.30;;
78406;SDS011;67692;51.074;-1.790;2023-09-12T03:54:32;3.75;;;1.30;;
78406;SDS011;67692;51.074;-1.790;2023-09-12T03:56:59;6.32;;;1.10;;
78406;SDS011;67692;51.074;-1.790;2023-09-12T03:59:25;3.22;;;0.95;;
78406;SDS011;67692;51.074;-1.790;2023-09-12T04:01:53;3.30;;;1.13;;
78406;SDS011;67692;51.074;-1.790;2023-09-12T04:04:20;3.13;;;1.30;;
78406;SDS011;67692;51.074;-1.790;2023-09-12T04:06:46;3.97;;;1.02;;
78406;SDS011;67692;51.074;-1.790;2023-09-12T04:09:13;4.35;;;1.15;;
78406;SDS011;67692;51.074;-1.790;2023-09-12T04:11:40;2.70;;;1.00;;
78406;SDS011;67692;51.074;-1.790;2023-09-12T04:14:06;3.13;;;1.10;;
78406;SDS011;67692;51.074;-1.790;2023-09-12T04:16:33;3.63;;;1.00;;
78406;SDS011;67692;51.074;-1.790;2023-09-12T04:19:01;4.72;;;1.50;;
78406;SDS011;67692;51.074;-1.790;2023-09-12T04:21:28;2.67;;;1.10;;
78406;SDS011;67692;51.074;-1.790;2023-09-12T04:23:54;2.92;;;1.05;;
78406;SDS011;67692;51.074;-1.790;2023-09-12T04:26:21;3.58;;;1.20;;
78406;SDS011;67692;51.074;-1.790;2023-09-12T04:28:47;4.03;;;1.27;;
78406;SDS011;67692;51.074;-1.790;2023-09-12T04:31:15;3.50;;;1.42;;
78406;SDS011;67692;51.074;-1.790;2023-09-12T04:33:41;3.05;;;1.10;;
78406;SDS011;67692;51.074;-1.790;2023-09-12T04:36:09;3.00;;;1.30;;
78406;SDS011;67692;51.074;-1.790;2023-09-12T04:38:36;2.85;;;1.20;;
78406;SDS011;67692;51.074;-1.790;2023-09-12T04:41:02;2.83;;;1.30;;
78406;SDS011;67692;51.074;-1.790;2023-09-12T04:43:30;5.25;;;1.42;;
78406;SDS011;67692;51.074;-1.790;2023-09-12T04:45:56;4.32;;;1.33;;
78406;SDS011;67692;51.074;-1.790;2023-09-12T04:48:23;5.05;;;1.63;;
78406;SDS011;67692;51.074;-1.790;2023-09-12T04:50:50;2.88;;;1.25;;
78406;SDS011;67692;51.074;-1.790;2023-09-12T04:53:17;3.13;;;1.08;;
78406;SDS011;67692;51.074;-1.790;2023-09-12T04:55:44;3.47;;;1.58;;
78406;SDS011;67692;51.074;-1.790;2023-09-12T04:58:10;4.60;;;1.40;;
78406;SDS011;67692;51.074;-1.790;2023-09-12T05:00:38;5.00;;;1.40;;
78406;SDS011;67692;51.074;-1.790;2023-09-12T05:03:06;3.30;;;1.45;;
78406;SDS011;67692;51.074;-1.790;2023-09-12T05:05:33;3.78;;;1.50;;
78406;SDS011;67692;51.074;-1.790;2023-09-12T05:08:00;3.40;;;1.20;;
78406;SDS011;67692;51.074;-1.790;2023-09-12T05:10:28;4.18;;;1.40;;
78406;SDS011;67692;51.074;-1.790;2023-09-12T05:12:55;2.97;;;1.27;;
78406;SDS011;67692;51.074;-1.790;2023-09-12T05:15:21;4.00;;;1.50;;
78406;SDS011;67692;51.074;-1.790;2023-09-12T05:17:48;4.20;;;1.70;;
78406;SDS011;67692;51.074;-1.790;2023-09-12T05:20:14;5.70;;;1.85;;
78406;SDS011;67692;51.074;-1.790;2023-09-12T05:22:41;2.25;;;1.13;;
78406;SDS011;67692;51.074;-1.790;2023-09-12T05:25:08;5.80;;;1.40;;
78406;SDS011;67692;51.074;-1.790;2023-09-12T05:27:36;3.55;;;1.42;;
78406;SDS011;67692;51.074;-1.790;2023-09-12T05:30:03;4.93;;;1.60;;
78406;SDS011;67692;51.074;-1.790;2023-09-12T05:32:30;2.47;;;0.93;;
78406;SDS011;67692;51.074;-1.790;2023-09-12T05:34:56;5.68;;;1.13;;
78406;SDS011;67692;51.074;-1.790;2023-09-12T05:37:23;4.05;;;1.20;;
78406;SDS011;67692;51.074;-1.790;2023-09-12T05:39:49;4.57;;;1.10;;
78406;SDS011;67692;51.074;-1.790;2023-09-12T05:42:16;3.35;;;1.27;;
78406;SDS011;67692;51.074;-1.790;2023-09-12T05:44:47;3.72;;;1.48;;
78406;SDS011;67692;51.074;-1.790;2023-09-12T05:47:14;3.47;;;1.27;;
78406;SDS011;67692;51.074;-1.790;2023-09-12T05:49:40;4.65;;;1.40;;
78406;SDS011;67692;51.074;-1.790;2023-09-12T05:52:07;3.70;;;1.55;;
78406;SDS011;67692;51.074;-1.790;2023-09-12T05:54:33;3.17;;;1.17;;
78406;SDS011;67692;51.074;-1.790;2023-09-12T05:57:00;3.55;;;1.48;;
78406;SDS011;67692;51.074;-1.790;2023-09-12T05:59:27;3.53;;;1.60;;
78406;SDS011;67692;51.074;-1.790;2023-09-12T06:01:55;4.45;;;1.35;;
78406;SDS011;67692;51.074;-1.790;2023-09-12T06:04:21;4.03;;;1.40;;
78406;SDS011;67692;51.074;-1.790;2023-09-12T06:06:48;5.05;;;1.65;;
78406;SDS011;67692;51.074;-1.790;2023-09-12T06:09:15;5.10;;;1.70;;
78406;SDS011;67692;51.074;-1.790;2023-09-12T06:11:41;4.07;;;1.40;;
78406;SDS011;67692;51.074;-1.790;2023-09-12T06:14:08;6.13;;;1.80;;
78406;SDS011;67692;51.074;-1.790;2023-09-12T06:16:34;3.72;;;1.60;;
78406;SDS011;67692;51.074;-1.790;2023-09-12T06:19:02;4.85;;;1.50;;
78406;SDS011;67692;51.074;-1.790;2023-09-12T06:21:29;3.50;;;1.60;;
78406;SDS011;67692;51.074;-1.790;2023-09-12T06:24:08;4.15;;;1.38;;
78406;SDS011;67692;51.074;-1.790;2023-09-12T06:26:36;3.47;;;1.50;;
78406;SDS011;67692;51.074;-1.790;2023-09-12T06:29:02;6.30;;;1.70;;
78406;SDS011;67692;51.074;-1.790;2023-09-12T06:31:29;5.47;;;1.60;;
78406;SDS011;67692;51.074;-1.790;2023-09-12T06:33:55;5.57;;;2.40;;
78406;SDS011;67692;51.074;-1.790;2023-09-12T06:36:24;4.82;;;1.63;;
78406;SDS011;67692;51.074;-1.790;2023-09-12T06:38:50;5.55;;;1.70;;
78406;SDS011;67692;51.074;-1.790;2023-09-12T06:41:18;6.50;;;1.60;;
78406;SDS011;67692;51.074;-1.790;2023-09-12T06:43:45;4.65;;;1.70;;
78406;SDS011;67692;51.074;-1.790;2023-09-12T06:46:12;4.63;;;1.45;;
78406;SDS011;67692;51.074;-1.790;2023-09-12T06:48:39;5.05;;;1.58;;
78406;SDS011;67692;51.074;-1.790;2023-09-12T06:51:06;4.40;;;1.60;;
78406;SDS011;67692;51.074;-1.790;2023-09-12T06:53:36;5.38;;;1.85;;
78406;SDS011;67692;51.074;-1.790;2023-09-12T06:56:02;4.22;;;1.70;;
78406;SDS011;67692;51.074;-1.790;2023-09-12T06:58:29;3.85;;;1.63;;
78406;SDS011;67692;51.074;-1.790;2023-09-12T07:00:56;3.20;;;1.30;;
78406;SDS011;67692;51.074;-1.790;2023-09-12T07:03:27;4.53;;;1.70;;
78406;SDS011;67692;51.074;-1.790;2023-09-12T07:05:54;7.88;;;1.73;;
78406;SDS011;67692;51.074;-1.790;2023-09-12T07:08:20;6.30;;;1.75;;
78406;SDS011;67692;51.074;-1.790;2023-09-12T07:10:48;4.28;;;1.73;;
78406;SDS011;67692;51.074;-1.790;2023-09-12T07:13:15;4.13;;;1.75;;
78406;SDS011;67692;51.074;-1.790;2023-09-12T07:15:41;4.60;;;1.65;;
78406;SDS011;67692;51.074;-1.790;2023-09-12T07:18:08;3.85;;;1.70;;
78406;SDS011;67692;51.074;-1.790;2023-09-12T07:20:34;6.78;;;2.45;;
78406;SDS011;67692;51.074;-1.790;2023-09-12T07:23:01;6.22;;;2.20;;
78406;SDS011;67692;51.074;-1.790;2023-09-12T07:25:27;4.32;;;2.05;;
78406;SDS011;67692;51.074;-1.790;2023-09-12T07:27:55;7.00;;;2.03;;
78406;SDS011;67692;51.074;-1.790;2023-09-12T07:30:22;4.47;;;1.77;;
78406;SDS011;67692;51.074;-1.790;2023-09-12T07:32:48;4.15;;;1.90;;
78406;SDS011;67692;51.074;-1.790;2023-09-12T07:35:16;4.85;;;1.85;;
78406;SDS011;67692;51.074;-1.790;2023-09-12T07:37:44;5.75;;;2.00;;
78406;SDS011;67692;51.074;-1.790;2023-09-12T07:40:11;6.95;;;2.50;;
78406;SDS011;67692;51.074;-1.790;2023-09-12T07:42:37;4.20;;;1.67;;
78406;SDS011;67692;51.074;-1.790;2023-09-12T07:45:06;9.38;;;2.17;;
78406;SDS011;67692;51.074;-1.790;2023-09-12T07:47:33;5.75;;;1.85;;
78406;SDS011;67692;51.074;-1.790;2023-09-12T07:50:00;5.15;;;1.63;;
78406;SDS011;67692;51.074;-1.790;2023-09-12T07:52:26;6.10;;;2.08;;
78406;SDS011;67692;51.074;-1.790;2023-09-12T07:54:53;8.15;;;2.05;;
78406;SDS011;67692;51.074;-1.790;2023-09-12T07:57:25;8.05;;;2.92;;
78406;SDS011;67692;51.074;-1.790;2023-09-12T07:59:52;6.22;;;2.17;;
78406;SDS011;67692;51.074;-1.790;2023-09-12T08:02:20;4.72;;;2.15;;
78406;SDS011;67692;51.074;-1.790;2023-09-12T08:04:46;5.65;;;1.83;;
78406;SDS011;67692;51.074;-1.790;2023-09-12T08:07:13;13.32;;;2.10;;
78406;SDS011;67692;51.074;-1.790;2023-09-12T08:09:49;5.20;;;1.83;;
78406;SDS011;67692;51.074;-1.790;2023-09-12T08:12:17;5.15;;;2.08;;
78406;SDS011;67692;51.074;-1.790;2023-09-12T08:14:44;8.93;;;2.88;;
78406;SDS011;67692;51.074;-1.790;2023-09-12T08:17:11;5.75;;;2.33;;
78406;SDS011;67692;51.074;-1.790;2023-09-12T08:19:39;6.32;;;2.33;;
78406;SDS011;67692;51.074;-1.790;2023-09-12T08:22:06;7.75;;;2.47;;
78406;SDS011;67692;51.074;-1.790;2023-09-12T08:24:34;6.80;;;2.60;;
78406;SDS011;67692;51.074;-1.790;2023-09-12T08:27:01;6.78;;;2.20;;
78406;SDS011;67692;51.074;-1.790;2023-09-12T08:29:28;7.40;;;2.20;;
78406;SDS011;67692;51.074;-1.790;2023-09-12T08:31:55;4.93;;;2.05;;
78406;SDS011;67692;51.074;-1.790;2023-09-12T08:34:21;6.95;;;2.40;;
78406;SDS011;67692;51.074;-1.790;2023-09-12T08:36:49;6.80;;;2.60;;
78406;SDS011;67692;51.074;-1.790;2023-09-12T08:39:18;6.00;;;2.03;;
78406;SDS011;67692;51.074;-1.790;2023-09-12T08:41:49;7.57;;;2.60;;
78406;SDS011;67692;51.074;-1.790;2023-09-12T08:44:16;7.03;;;2.60;;
78406;SDS011;67692;51.074;-1.790;2023-09-12T08:46:44;6.97;;;3.13;;
78406;SDS011;67692;51.074;-1.790;2023-09-12T08:49:11;6.78;;;3.00;;
78406;SDS011;67692;51.074;-1.790;2023-09-12T08:51:38;5.45;;;2.45;;
78406;SDS011;67692;51.074;-1.790;2023-09-12T08:54:07;8.52;;;2.22;;
78406;SDS011;67692;51.074;-1.790;2023-09-12T08:56:35;6.13;;;2.50;;
78406;SDS011;67692;51.074;-1.790;2023-09-12T08:59:05;8.40;;;2.47;;
78406;SDS011;67692;51.074;-1.790;2023-09-12T09:01:33;6.32;;;3.10;;
78406;SDS011;67692;51.074;-1.790;2023-09-12T09:04:01;9.27;;;2.75;;
78406;SDS011;67692;51.074;-1.790;2023-09-12T09:06:28;12.90;;;3.17;;
78406;SDS011;67692;51.074;-1.790;2023-09-12T09:08:57;8.18;;;2.80;;
78406;SDS011;67692;51.074;-1.790;2023-09-12T09:11:26;8.57;;;2.60;;
78406;SDS011;67692;51.074;-1.790;2023-09-12T09:13:54;5.25;;;2.47;;
78406;SDS011;67692;51.074;-1.790;2023-09-12T09:16:21;6.88;;;2.22;;
78406;SDS011;67692;51.074;-1.790;2023-09-12T09:18:49;10.68;;;3.28;;
78406;SDS011;67692;51.074;-1.790;2023-09-12T09:21:20;7.32;;;3.42;;
78406;SDS011;67692;51.074;-1.790;2023-09-12T09:23:49;10.35;;;3.70;;
78406;SDS011;67692;51.074;-1.790;2023-09-12T09:26:16;11.00;;;3.65;;
78406;SDS011;67692;51.074;-1.790;2023-09-12T09:28:44;7.82;;;3.75;;
78406;SDS011;67692;51.074;-1.790;2023-09-12T09:31:11;8.88;;;3.80;;
78406;SDS011;67692;51.074;-1.790;2023-09-12T09:33:39;8.25;;;3.47;;
78406;SDS011;67692;51.074;-1.790;2023-09-12T09:36:10;10.95;;;4.10;;
78406;SDS011;67692;51.074;-1.790;2023-09-12T09:38:37;9.07;;;3.58;;
78406;SDS011;67692;51.074;-1.790;2023-09-12T09:41:04;10.52;;;4.05;;
78406;SDS011;67692;51.074;-1.790;2023-09-12T09:43:31;6.40;;;2.92;;
78406;SDS011;67692;51.074;-1.790;2023-09-12T09:45:59;6.65;;;2.83;;
78406;SDS011;67692;51.074;-1.790;2023-09-12T09:48:26;7.47;;;2.20;;
78406;SDS011;67692;51.074;-1.790;2023-09-12T09:50:53;8.23;;;2.38;;
78406;SDS011;67692;51.074;-1.790;2023-09-12T09:53:26;4.97;;;2.08;;
78406;SDS011;67692;51.074;-1.790;2023-09-12T09:56:01;4.05;;;1.70;;
78406;SDS011;67692;51.074;-1.790;2023-09-12T09:58:33;6.95;;;2.03;;
78406;SDS011;67692;51.074;-1.790;2023-09-12T10:01:01;5.63;;;2.08;;
78406;SDS011;67692;51.074;-1.790;2023-09-12T10:03:31;4.55;;;1.63;;
78406;SDS011;67692;51.074;-1.790;2023-09-12T10:06:02;5.05;;;1.60;;
78406;SDS011;67692;51.074;-1.790;2023-09-12T10:08:31;4.78;;;1.45;;
78406;SDS011;67692;51.074;-1.790;2023-09-12T10:10:59;3.90;;;1.65;;
78406;SDS011;67692;51.074;-1.790;2023-09-12T10:13:27;6.07;;;1.95;;
78406;SDS011;67692;51.074;-1.790;2023-09-12T10:15:57;10.65;;;2.33;;
78406;SDS011;67692;51.074;-1.790;2023-09-12T10:18:28;9.07;;;2.50;;
78406;SDS011;67692;51.074;-1.790;2023-09-12T10:21:02;6.07;;;2.40;;
78406;SDS011;67692;51.074;-1.790;2023-09-12T10:23:34;3.85;;;1.55;;
78406;SDS011;67692;51.074;-1.790;2023-09-12T10:26:07;5.18;;;1.63;;
78406;SDS011;67692;51.074;-1.790;2023-09-12T10:28:36;4.47;;;1.63;;
78406;SDS011;67692;51.074;-1.790;2023-09-12T10:31:04;5.35;;;1.85;;
78406;SDS011;67692;51.074;-1.790;2023-09-12T10:33:34;4.00;;;1.83;;
78406;SDS011;67692;51.074;-1.790;2023-09-12T10:36:01;5.88;;;1.70;;
78406;SDS011;67692;51.074;-1.790;2023-09-12T10:38:29;6.07;;;1.58;;
78406;SDS011;67692;51.074;-1.790;2023-09-12T10:40:58;5.18;;;1.90;;
78406;SDS011;67692;51.074;-1.790;2023-09-12T10:43:26;4.32;;;1.63;;
78406;SDS011;67692;51.074;-1.790;2023-09-12T10:45:54;4.50;;;2.15;;
78406;SDS011;67692;51.074;-1.790;2023-09-12T10:48:24;5.65;;;1.73;;
78406;SDS011;67692;51.074;-1.790;2023-09-12T10:50:53;6.07;;;1.73;;
78406;SDS011;67692;51.074;-1.790;2023-09-12T10:53:21;4.80;;;1.83;;
78406;SDS011;67692;51.074;-1.790;2023-09-12T10:55:57;4.05;;;1.55;;
78406;SDS011;67692;51.074;-1.790;2023-09-12T10:58:25;7.53;;;2.15;;
78406;SDS011;67692;51.074;-1.790;2023-09-12T11:03:48;3.35;;;1.90;;
78406;SDS011;67692;51.074;-1.790;2023-09-12T11:06:22;9.10;;;2.00;;
78406;SDS011;67692;51.074;-1.790;2023-09-12T11:11:42;5.20;;;2.35;;
78406;SDS011;67692;51.074;-1.790;2023-09-12T11:14:11;4.63;;;1.95;;
78406;SDS011;67692;51.074;-1.790;2023-09-12T11:16:38;4.55;;;1.85;;
78406;SDS011;67692;51.074;-1.790;2023-09-12T11:19:14;6.70;;;1.90;;
78406;SDS011;67692;51.074;-1.790;2023-09-12T11:21:44;5.60;;;2.00;;
78406;SDS011;67692;51.074;-1.790;2023-09-12T11:24:13;4.57;;;1.50;;
78406;SDS011;67692;51.074;-1.790;2023-09-12T11:26:53;6.63;;;2.22;;
78406;SDS011;67692;51.074;-1.790;2023-09-12T11:29:20;8.30;;;1.95;;
78406;SDS011;67692;51.074;-1.790;2023-09-12T11:31:54;4.25;;;1.73;;
78406;SDS011;67692;51.074;-1.790;2023-09-12T11:34:23;6.30;;;1.90;;
78406;SDS011;67692;51.074;-1.790;2023-09-12T11:36:55;5.22;;;1.70;;
78406;SDS011;67692;51.074;-1.790;2023-09-12T11:39:23;4.47;;;1.65;;
78406;SDS011;67692;51.074;-1.790;2023-09-12T11:41:50;5.40;;;1.95;;
78406;SDS011;67692;51.074;-1.790;2023-09-12T11:44:17;6.07;;;1.92;;
78406;SDS011;67692;51.074;-1.790;2023-09-12T11:46:46;7.72;;;2.20;;
78406;SDS011;67692;51.074;-1.790;2023-09-12T11:49:14;4.07;;;2.10;;
78406;SDS011;67692;51.074;-1.790;2023-09-12T11:51:48;6.68;;;2.50;;
78406;SDS011;67692;51.074;-1.790;2023-09-12T11:54:18;10.85;;;2.97;;
78406;SDS011;67692;51.074;-1.790;2023-09-12T11:56:46;6.22;;;2.58;;
78406;SDS011;67692;51.074;-1.790;2023-09-12T11:59:14;7.55;;;2.80;;
78406;SDS011;67692;51.074;-1.790;2023-09-12T12:01:43;6.70;;;2.80;;
78406;SDS011;67692;51.074;-1.790;2023-09-12T12:04:10;7.50;;;2.88;;
78406;SDS011;67692;51.074;-1.790;2023-09-12T12:06:37;8.65;;;2.70;;
78406;SDS011;67692;51.074;-1.790;2023-09-12T12:09:03;7.60;;;2.88;;
78406;SDS011;67692;51.074;-1.790;2023-09-12T12:11:32;10.60;;;4.68;;
78406;SDS011;67692;51.074;-1.790;2023-09-12T12:14:08;6.95;;;3.05;;
78406;SDS011;67692;51.074;-1.790;2023-09-12T12:16:35;6.88;;;2.60;;
78406;SDS011;67692;51.074;-1.790;2023-09-12T12:19:02;9.07;;;2.95;;
78406;SDS011;67692;51.074;-1.790;2023-09-12T12:21:29;8.43;;;2.85;;
78406;SDS011;67692;51.074;-1.790;2023-09-12T12:23:59;8.68;;;3.60;;
78406;SDS011;67692;51.074;-1.790;2023-09-12T12:26:26;8.18;;;2.58;;
78406;SDS011;67692;51.074;-1.790;2023-09-12T12:28:54;6.82;;;2.83;;
78406;SDS011;67692;51.074;-1.790;2023-09-12T12:31:21;10.00;;;2.67;;
78406;SDS011;67692;51.074;-1.790;2023-09-12T12:33:49;6.60;;;2.65;;
78406;SDS011;67692;51.074;-1.790;2023-09-12T12:36:16;6.03;;;2.42;;
78406;SDS011;67692;51.074;-1.790;2023-09-12T12:38:43;6.00;;;2.25;;
78406;SDS011;67692;51.074;-1.790;2023-09-12T12:41:12;6.05;;;2.10;;
78406;SDS011;67692;51.074;-1.790;2023-09-12T12:43:39;4.95;;;1.90;;
78406;SDS011;67692;51.074;-1.790;2023-09-12T12:46:09;6.45;;;1.42;;
78406;SDS011;67692;51.074;-1.790;2023-09-12T12:48:37;5.07;;;2.08;;
78406;SDS011;67692;51.074;-1.790;2023-09-12T12:51:15;4.60;;;1.80;;
78406;SDS011;67692;51.074;-1.790;2023-09-12T12:53:43;3.67;;;1.42;;
78406;SDS011;67692;51.074;-1.790;2023-09-12T12:56:12;5.72;;;1.67;;
78406;SDS011;67692;51.074;-1.790;2023-09-12T12:58:44;5.88;;;1.98;;
78406;SDS011;67692;51.074;-1.790;2023-09-12T13:01:13;4.30;;;1.45;;
78406;SDS011;67692;51.074;-1.790;2023-09-12T13:03:40;5.30;;;1.70;;
78406;SDS011;67692;51.074;-1.790;2023-09-12T13:06:06;7.53;;;1.80;;
78406;SDS011;67692;51.074;-1.790;2023-09-12T13:08:38;4.35;;;1.45;;
78406;SDS011;67692;51.074;-1.790;2023-09-12T13:11:05;4.82;;;2.08;;
78406;SDS011;67692;51.074;-1.790;2023-09-12T13:13:31;6.72;;;2.45;;
78406;SDS011;67692;51.074;-1.790;2023-09-12T13:15:58;5.00;;;2.10;;
78406;SDS011;67692;51.074;-1.790;2023-09-12T13:18:26;7.28;;;2.17;;
78406;SDS011;67692;51.074;-1.790;2023-09-12T13:20:53;6.97;;;2.08;;
78406;SDS011;67692;51.074;-1.790;2023-09-12T13:23:20;5.18;;;1.80;;
78406;SDS011;67692;51.074;-1.790;2023-09-12T13:25:46;5.57;;;2.20;;
78406;SDS011;67692;51.074;-1.790;2023-09-12T13:28:13;5.25;;;2.20;;
78406;SDS011;67692;51.074;-1.790;2023-09-12T13:30:39;4.47;;;1.80;;
78406;SDS011;67692;51.074;-1.790;2023-09-12T13:33:06;7.05;;;1.75;;
78406;SDS011;67692;51.074;-1.790;2023-09-12T13:35:34;4.10;;;1.83;;
78406;SDS011;67692;51.074;-1.790;2023-09-12T13:38:00;4.57;;;1.95;;
78406;SDS011;67692;51.074;-1.790;2023-09-12T13:40:28;5.10;;;1.50;;
78406;SDS011;67692;51.074;-1.790;2023-09-12T13:42:55;4.22;;;1.50;;
78406;SDS011;67692;51.074;-1.790;2023-09-12T13:45:22;8.65;;;2.00;;
78406;SDS011;67692;51.074;-1.790;2023-09-12T13:47:48;3.35;;;1.42;;
78406;SDS011;67692;51.074;-1.790;2023-09-12T13:50:15;4.43;;;1.35;;
78406;SDS011;67692;51.074;-1.790;2023-09-12T13:52:43;3.55;;;1.33;;
78406;SDS011;67692;51.074;-1.790;2023-09-12T13:55:10;3.85;;;1.45;;
78406;SDS011;67692;51.074;-1.790;2023-09-12T13:57:38;3.28;;;1.35;;
78406;SDS011;67692;51.074;-1.790;2023-09-12T14:00:05;4.65;;;1.63;;
78406;SDS011;67692;51.074;-1.790;2023-09-12T14:02:33;4.25;;;2.00;;
78406;SDS011;67692;51.074;-1.790;2023-09-12T14:04:59;3.40;;;1.50;;
78406;SDS011;67692;51.074;-1.790;2023-09-12T14:07:26;5.03;;;1.55;;
78406;SDS011;67692;51.074;-1.790;2023-09-12T14:09:54;5.15;;;1.88;;
78406;SDS011;67692;51.074;-1.790;2023-09-12T14:12:22;5.32;;;1.52;;
78406;SDS011;67692;51.074;-1.790;2023-09-12T14:14:49;4.47;;;1.75;;
78406;SDS011;67692;51.074;-1.790;2023-09-12T14:17:15;4.85;;;1.30;;
78406;SDS011;67692;51.074;-1.790;2023-09-12T14:19:42;5.13;;;1.90;;
78406;SDS011;67692;51.074;-1.790;2023-09-12T14:22:09;5.07;;;1.75;;
78406;SDS011;67692;51.074;-1.790;2023-09-12T14:24:35;3.97;;;1.63;;
78406;SDS011;67692;51.074;-1.790;2023-09-12T14:27:03;4.55;;;1.33;;
78406;SDS011;67692;51.074;-1.790;2023-09-12T14:29:30;4.18;;;1.40;;
78406;SDS011;67692;51.074;-1.790;2023-09-12T14:31:57;4.65;;;1.95;;
78406;SDS011;67692;51.074;-1.790;2023-09-12T14:34:23;4.93;;;1.55;;
78406;SDS011;67692;51.074;-1.790;2023-09-12T14:36:51;4.13;;;1.48;;
78406;SDS011;67692;51.074;-1.790;2023-09-12T14:39:18;5.60;;;1.70;;
78406;SDS011;67692;51.074;-1.790;2023-09-12T14:41:45;3.88;;;1.70;;